Ionia, MI

9:26 PM EST on November 22, 2019 (GMT -0500)
Ionia

Weather History for KY70 - September, 2019

Change the Weather History Date:

Thursday, September 5, 2019

  Actual Average (WUND) Record (WUND)
Temperature  
Mean Temperature 60 °F -  
Max Temperature 72 °F - - (-1)
Min Temperature 48 °F - - (-1)
Degree Days  
Heating Degree Days 5    
Growing Degree Days 10 (Base 50)    
Moisture  
Dew Point 50 °F    
Average Humidity 71    
Maximum Humidity 93    
Minimum Humidity 42    
Precipitation  
Precipitation 0.00 in - - ()
Sea Level Pressure  
Sea Level Pressure 30.13 in    
Wind  
Wind Speed 2 mph ()    
Max Wind Speed 8 mph    
Max Gust Speed -    
Visibility 10.0 miles    
Events Rain    
Averages and records for this station are not official NWS values.
T = Trace of Precipitation, MM = Missing Value Source: Averaged Metar Reports

Daily Weather History Graph

Daily Weather History Graph

Search for Another Location

Airport or City:

Astronomy

Sep. 05, 2019 Rise Set
Actual Time 7:08 AM EDT 8:08 PM EDT
Civil Twilight 6:39 AM EDT 8:37 PM EDT
Nautical Twilight 6:05 AM EDT 9:11 PM EDT
Astronomical Twilight 5:29 AM EDT 9:47 PM EDT
Moon 2:25 PM EDT (9/5) No Moon Set
Length of Visible Light 13h 57m
Length of Day
12h 59m
Waxing Crescent, 45% of the Moon is Illuminated
Sep 5
Waxing Crescent
Sep 5
First Quarter
Sep 14
Full
Sep 21
Last Quarter
Sep 28
New

Hourly Weather History & Observations

Time (EDT) Temp. Dew Point Humidity Pressure Visibility Wind Dir Wind Speed Gust Speed Precip Events Conditions
12:16 AM 56.5 °F 52.0 °F 85% 30.15 in 10.0 mi NW 4.6 mph - N/A   Clear
12:35 AM 56.3 °F 51.6 °F 84% 30.15 in 10.0 mi NNW 3.5 mph - N/A   Clear
12:36 AM 56.3 °F 51.6 °F 84% 30.15 in 10.0 mi North 4.6 mph - N/A   Clear
12:55 AM 55.6 °F 51.1 °F 85% 30.15 in 10.0 mi NNW 3.5 mph - N/A   Clear
12:56 AM 55.6 °F 51.1 °F 85% 30.15 in 10.0 mi NNW 3.5 mph - N/A   Clear
1:19 AM 55.4 °F 50.9 °F 85% 30.15 in 10.0 mi North 3.5 mph - N/A   Clear
1:37 AM 54.5 °F 50.7 °F 87% 30.15 in 10.0 mi North 3.5 mph - N/A   Clear
1:55 AM 53.6 °F 49.8 °F 87% 30.15 in 10.0 mi North 5.8 mph - N/A   Clear
2:15 AM 53.1 °F 49.6 °F 88% 30.15 in 10.0 mi North 4.6 mph - N/A   Clear
2:35 AM 52.9 °F 49.8 °F 89% 30.15 in 10.0 mi North 3.5 mph - N/A   Clear
2:40 AM 52.9 °F 49.6 °F 89% 30.15 in 10.0 mi North 3.5 mph - N/A   Clear
2:58 AM 53.2 °F 49.8 °F 88% 30.15 in 10.0 mi Calm Calm - N/A   Clear
3:16 AM 53.6 °F 49.3 °F 85% 30.15 in 10.0 mi Calm Calm - N/A   Clear
3:35 AM 53.6 °F 49.1 °F 85% 30.15 in 10.0 mi Calm Calm - N/A   Clear
3:55 AM 52.3 °F 48.2 °F 86% 30.15 in 10.0 mi Calm Calm - N/A   Clear
4:19 AM 50.5 °F 47.7 °F 90% 30.14 in 10.0 mi Calm Calm - N/A   Clear
4:37 AM 50.7 °F 47.5 °F 89% 30.15 in 10.0 mi Calm Calm - N/A   Clear
4:55 AM 50.0 °F 47.5 °F 91% 30.15 in 10.0 mi Calm Calm - N/A   Clear
5:15 AM 50.7 °F 46.8 °F 86% 30.16 in 10.0 mi Calm Calm - N/A   Clear
5:16 AM 50.4 °F 46.4 °F 86% 30.16 in 10.0 mi Calm Calm - N/A   Clear
5:35 AM 50.9 °F 48.0 °F 90% 30.15 in 10.0 mi Calm Calm - N/A   Clear
5:40 AM 50.7 °F 47.3 °F 88% 30.15 in 10.0 mi Calm Calm - N/A   Clear
5:58 AM 49.3 °F 45.7 °F 87% 30.16 in 10.0 mi Calm Calm - N/A   Clear
6:16 AM 49.3 °F 47.1 °F 92% 30.16 in 10.0 mi Calm Calm - N/A   Clear
6:35 AM 48.2 °F 46.0 °F 92% 30.17 in 10.0 mi Calm Calm - N/A   Clear
6:36 AM 48.4 °F 46.2 °F 92% 30.17 in 10.0 mi Calm Calm - N/A   Clear
6:55 AM 48.6 °F 46.4 °F 92% 30.17 in 10.0 mi Calm Calm - N/A   Clear
6:56 AM 48.6 °F 46.6 °F 93% 30.17 in 10.0 mi Calm Calm - N/A   Clear
7:19 AM 48.9 °F 46.2 °F 90% 30.19 in 10.0 mi Calm Calm - N/A   Clear
7:37 AM 49.5 °F 46.9 °F 91% 30.19 in 10.0 mi Calm Calm - N/A   Mostly Cloudy
7:56 AM 51.4 °F 48.7 °F 90% 30.19 in 10.0 mi Calm Calm - N/A   Overcast
8:15 AM 51.6 °F 48.9 °F 90% 30.19 in 10.0 mi Calm Calm - N/A   Scattered Clouds
8:16 AM 51.6 °F 49.1 °F 91% 30.19 in 10.0 mi Calm Calm - N/A   Scattered Clouds
8:35 AM 52.9 °F 48.7 °F 86% 30.19 in 10.0 mi Calm Calm - N/A   Clear
8:40 AM 53.1 °F 48.7 °F 85% 30.19 in 10.0 mi Calm Calm - N/A   Clear
8:58 AM 54.7 °F 49.1 °F 81% 30.19 in 10.0 mi Calm Calm - N/A   Clear
9:16 AM 55.9 °F 50.2 °F 81% 30.19 in 10.0 mi Calm Calm - N/A   Clear
9:35 AM 57.2 °F 50.5 °F 78% 30.19 in 10.0 mi Calm Calm - N/A   Clear
9:55 AM 58.5 °F 52.2 °F 80% 30.19 in 10.0 mi Calm Calm - N/A   Clear
10:19 AM 60.3 °F 53.1 °F 77% 30.19 in 10.0 mi Calm Calm - N/A   Clear
10:37 AM 61.7 °F 53.2 °F 74% 30.20 in 10.0 mi Calm Calm - N/A   Clear
10:55 AM 63.9 °F 54.7 °F 72% 30.19 in 10.0 mi Calm Calm - N/A   Clear
10:56 AM 63.9 °F 54.9 °F 72% 30.19 in 10.0 mi Calm Calm - N/A   Clear
11:15 AM 64.6 °F 52.5 °F 65% 30.17 in 10.0 mi Calm Calm - N/A   Clear
11:35 AM 65.7 °F 49.8 °F 57% 30.18 in 10.0 mi Calm Calm - N/A   Clear
11:58 AM 66.6 °F 47.8 °F 51% 30.17 in 10.0 mi Calm Calm - N/A   Scattered Clouds
12:16 PM 66.9 °F 48.7 °F 52% 30.16 in 10.0 mi Calm Calm - N/A   Clear
12:35 PM 68.0 °F 50.4 °F 53% 30.17 in 10.0 mi SE 5.8 mph - N/A   Scattered Clouds
12:55 PM 67.6 °F 49.3 °F 52% 30.17 in 10.0 mi WNW 3.5 mph - N/A   Mostly Cloudy
12:56 PM 67.6 °F 49.5 °F 52% 30.17 in 10.0 mi West 4.6 mph - N/A   Mostly Cloudy
1:19 PM 68.9 °F 48.6 °F 48% 30.17 in 10.0 mi WSW 5.8 mph - N/A   Mostly Cloudy
1:37 PM 70.7 °F 48.7 °F 46% 30.17 in 10.0 mi Calm Calm - N/A   Mostly Cloudy
1:55 PM 69.1 °F 49.5 °F 50% 30.17 in 10.0 mi Calm Calm - N/A   Mostly Cloudy
2:15 PM 70.0 °F 50.0 °F 49% 30.16 in 10.0 mi NW 3.5 mph - N/A   Scattered Clouds
2:35 PM 70.2 °F 50.4 °F 49% 30.15 in 10.0 mi NW 3.5 mph - N/A   Mostly Cloudy
2:40 PM 70.5 °F 50.0 °F 48% 30.15 in 10.0 mi NW 4.6 mph - N/A   Mostly Cloudy
2:58 PM 69.3 °F 50.2 °F 51% 30.14 in 10.0 mi Calm Calm - N/A   Mostly Cloudy
3:16 PM 69.8 °F 50.4 °F 50% 30.13 in 10.0 mi Calm Calm - N/A   Mostly Cloudy
3:35 PM 70.0 °F 50.5 °F 50% 30.13 in 10.0 mi Calm Calm - N/A   Overcast
3:36 PM 70.0 °F 50.2 °F 49% 30.13 in 10.0 mi Calm Calm - N/A   Overcast
3:55 PM 69.1 °F 49.6 °F 50% 30.12 in 10.0 mi Calm Calm - N/A   Overcast
3:56 PM 68.9 °F 49.8 °F 51% 30.12 in 10.0 mi Calm Calm - N/A   Overcast
4:19 PM 71.1 °F 49.1 °F 46% 30.11 in 10.0 mi Calm Calm - N/A   Scattered Clouds
4:37 PM 72.0 °F 47.8 °F 42% 30.10 in 10.0 mi WSW 4.6 mph - N/A   Scattered Clouds
4:55 PM 71.1 °F 49.6 °F 47% 30.09 in 10.0 mi SW 4.6 mph - N/A   Scattered Clouds
5:15 PM 71.6 °F 50.0 °F 46% 30.09 in 10.0 mi West 3.5 mph - N/A   Scattered Clouds
5:16 PM 71.6 °F 49.8 °F 46% 30.08 in 10.0 mi WSW 5.8 mph - N/A   Scattered Clouds
5:35 PM 72.7 °F 50.0 °F 45% 30.09 in 10.0 mi West 3.5 mph - N/A   Clear
5:39 PM 72.5 °F 49.6 °F 44% 30.08 in 10.0 mi West 3.5 mph - N/A   Clear
5:58 PM 72.1 °F 50.7 °F 47% 30.08 in 10.0 mi West 5.8 mph - N/A   Clear
6:16 PM 72.0 °F 50.0 °F 46% 30.07 in 10.0 mi West 3.5 mph - N/A   Clear
6:35 PM 71.4 °F 51.6 °F 50% 30.07 in 10.0 mi Calm Calm - N/A   Clear
6:55 PM 71.4 °F 50.2 °F 47% 30.08 in 10.0 mi WSW 3.5 mph - N/A   Clear
7:19 PM 70.9 °F 50.7 °F 49% 30.07 in 10.0 mi WSW 3.5 mph - N/A   Clear
7:37 PM 70.5 °F 50.7 °F 49% 30.07 in 10.0 mi Calm Calm - N/A   Clear
7:55 PM 69.8 °F 50.4 °F 50% 30.06 in 10.0 mi Calm Calm - N/A   Clear
7:56 PM 69.8 °F 50.4 °F 50% 30.06 in 10.0 mi Calm Calm - N/A   Clear
8:15 PM 64.2 °F 55.6 °F 73% 30.06 in 10.0 mi Calm Calm - N/A   Clear
8:16 PM 64.2 °F 55.4 °F 73% 30.06 in 10.0 mi Calm Calm - N/A   Clear
8:35 PM 63.3 °F 55.2 °F 75% 30.05 in 10.0 mi South 3.5 mph - N/A   Clear
8:57 PM 62.2 °F 55.0 °F 77% 30.06 in 10.0 mi Calm Calm - N/A   Clear
9:16 PM 63.1 °F 54.0 °F 72% 30.04 in 10.0 mi SSE 3.5 mph - N/A   Clear
9:35 PM 59.7 °F 55.4 °F 86% 30.05 in 10.0 mi Calm Calm - N/A   Clear
9:55 PM 60.1 °F 55.6 °F 85% 30.03 in 10.0 mi East 8.1 mph - N/A   Clear
9:56 PM 60.1 °F 55.6 °F 85% 30.03 in 10.0 mi East 8.1 mph - N/A   Clear
10:19 PM 63.1 °F 54.7 °F 74% 30.04 in 10.0 mi Calm Calm - N/A   Clear
10:37 PM 62.6 °F 54.7 °F 75% 30.04 in 10.0 mi Calm Calm - N/A   Clear
10:55 PM 61.9 °F 54.0 °F 75% 30.07 in 10.0 mi WNW 3.5 mph - N/A   Clear
11:15 PM 62.6 °F 54.9 °F 76% 30.07 in 10.0 mi WNW 4.6 mph - N/A   Clear
11:35 PM 62.6 °F 56.7 °F 81% 30.04 in 10.0 mi SSW 6.9 mph - N/A Rain Light Rain
11:58 PM 59.5 °F 56.5 °F 90% 30.01 in 10.0 mi East 5.8 mph - N/A   Scattered Clouds